sensor_id;sensor_type;location;lat;lon;timestamp;temperature;humidity
12123;DHT22;6125;59.628;17.852;2022-11-20T00:00:25;0.30;99.90
12123;DHT22;6125;59.628;17.852;2022-11-20T00:02:52;0.30;99.90
12123;DHT22;6125;59.628;17.852;2022-11-20T00:05:21;0.30;99.90
12123;DHT22;6125;59.628;17.852;2022-11-20T00:07:48;0.30;99.90
12123;DHT22;6125;59.628;17.852;2022-11-20T00:10:19;0.30;99.90
12123;DHT22;6125;59.628;17.852;2022-11-20T00:12:45;0.30;99.90
12123;DHT22;6125;59.628;17.852;2022-11-20T00:15:12;0.30;99.90
12123;DHT22;6125;59.628;17.852;2022-11-20T00:17:42;0.30;99.90
12123;DHT22;6125;59.628;17.852;2022-11-20T00:20:10;0.30;99.90
12123;DHT22;6125;59.628;17.852;2022-11-20T00:22:38;0.30;99.90
12123;DHT22;6125;59.628;17.852;2022-11-20T00:25:06;0.20;99.90
12123;DHT22;6125;59.628;17.852;2022-11-20T00:27:37;0.30;99.90
12123;DHT22;6125;59.628;17.852;2022-11-20T00:30:04;0.30;99.90
12123;DHT22;6125;59.628;17.852;2022-11-20T00:32:32;0.20;99.90
12123;DHT22;6125;59.628;17.852;2022-11-20T00:34:59;0.20;99.90
12123;DHT22;6125;59.628;17.852;2022-11-20T00:37:26;0.20;99.90
12123;DHT22;6125;59.628;17.852;2022-11-20T00:39:53;0.20;99.90
12123;DHT22;6125;59.628;17.852;2022-11-20T00:42:20;0.20;99.90
12123;DHT22;6125;59.628;17.852;2022-11-20T00:44:48;0.20;99.90
12123;DHT22;6125;59.628;17.852;2022-11-20T00:47:15;0.20;99.90
12123;DHT22;6125;59.628;17.852;2022-11-20T00:49:42;0.20;99.90
12123;DHT22;6125;59.628;17.852;2022-11-20T00:52:09;0.20;99.90
12123;DHT22;6125;59.628;17.852;2022-11-20T00:54:36;0.20;99.90
12123;DHT22;6125;59.628;17.852;2022-11-20T00:57:03;0.10;99.90
12123;DHT22;6125;59.628;17.852;2022-11-20T00:59:30;0.20;99.90
12123;DHT22;6125;59.628;17.852;2022-11-20T01:01:59;0.20;99.90
12123;DHT22;6125;59.628;17.852;2022-11-20T01:04:26;0.20;99.90
12123;DHT22;6125;59.628;17.852;2022-11-20T01:06:56;0.20;99.90
12123;DHT22;6125;59.628;17.852;2022-11-20T01:09:24;0.20;99.90
12123;DHT22;6125;59.628;17.852;2022-11-20T01:11:53;0.10;99.90
12123;DHT22;6125;59.628;17.852;2022-11-20T01:14:23;0.20;99.90
12123;DHT22;6125;59.628;17.852;2022-11-20T01:16:51;0.20;99.90
12123;DHT22;6125;59.628;17.852;2022-11-20T01:19:21;0.20;99.90
12123;DHT22;6125;59.628;17.852;2022-11-20T01:21:52;0.20;99.90
12123;DHT22;6125;59.628;17.852;2022-11-20T01:24:21;0.20;99.90
12123;DHT22;6125;59.628;17.852;2022-11-20T01:26:50;0.10;99.90
12123;DHT22;6125;59.628;17.852;2022-11-20T01:29:22;0.20;99.90
12123;DHT22;6125;59.628;17.852;2022-11-20T01:31:49;0.20;99.90
12123;DHT22;6125;59.628;17.852;2022-11-20T01:34:21;0.20;99.90
12123;DHT22;6125;59.628;17.852;2022-11-20T01:36:54;0.20;99.90
12123;DHT22;6125;59.628;17.852;2022-11-20T01:39:24;0.20;99.90
12123;DHT22;6125;59.628;17.852;2022-11-20T01:41:52;0.20;99.90
12123;DHT22;6125;59.628;17.852;2022-11-20T01:44:55;0.20;99.90
12123;DHT22;6125;59.628;17.852;2022-11-20T01:47:30;0.20;99.90
12123;DHT22;6125;59.628;17.852;2022-11-20T01:50:04;0.20;99.90
12123;DHT22;6125;59.628;17.852;2022-11-20T01:52:34;0.20;99.90
12123;DHT22;6125;59.628;17.852;2022-11-20T01:55:06;0.20;99.90
12123;DHT22;6125;59.628;17.852;2022-11-20T01:57:43;0.20;99.90
12123;DHT22;6125;59.628;17.852;2022-11-20T02:00:16;0.20;99.90
12123;DHT22;6125;59.628;17.852;2022-11-20T02:02:50;0.20;99.90
12123;DHT22;6125;59.628;17.852;2022-11-20T02:05:25;0.20;99.90
12123;DHT22;6125;59.628;17.852;2022-11-20T02:07:54;0.20;99.90
12123;DHT22;6125;59.628;17.852;2022-11-20T02:10:23;0.20;99.90
12123;DHT22;6125;59.628;17.852;2022-11-20T02:12:50;0.10;99.90
12123;DHT22;6125;59.628;17.852;2022-11-20T02:15:35;0.20;99.90
12123;DHT22;6125;59.628;17.852;2022-11-20T02:18:02;0.10;99.90
12123;DHT22;6125;59.628;17.852;2022-11-20T02:20:31;0.10;99.90
12123;DHT22;6125;59.628;17.852;2022-11-20T02:23:02;0.10;99.90
12123;DHT22;6125;59.628;17.852;2022-11-20T02:25:33;0.10;99.90
12123;DHT22;6125;59.628;17.852;2022-11-20T02:28:02;0.10;99.90
12123;DHT22;6125;59.628;17.852;2022-11-20T02:30:31;0.10;99.90
12123;DHT22;6125;59.628;17.852;2022-11-20T02:32:58;0.10;99.90
12123;DHT22;6125;59.628;17.852;2022-11-20T02:35:43;0.10;99.90
12123;DHT22;6125;59.628;17.852;2022-11-20T02:38:10;0.00;99.90
12123;DHT22;6125;59.628;17.852;2022-11-20T02:40:39;0.10;99.90
12123;DHT22;6125;59.628;17.852;2022-11-20T02:43:09;0.10;99.90
12123;DHT22;6125;59.628;17.852;2022-11-20T02:45:36;0.10;99.90
12123;DHT22;6125;59.628;17.852;2022-11-20T02:48:05;0.00;99.90
12123;DHT22;6125;59.628;17.852;2022-11-20T02:50:32;0.00;99.90
12123;DHT22;6125;59.628;17.852;2022-11-20T02:53:03;0.00;99.90
12123;DHT22;6125;59.628;17.852;2022-11-20T02:55:30;0.00;99.90
12123;DHT22;6125;59.628;17.852;2022-11-20T02:58:03;0.00;99.90
12123;DHT22;6125;59.628;17.852;2022-11-20T03:00:30;0.00;99.90
12123;DHT22;6125;59.628;17.852;2022-11-20T03:02:59;0.10;99.90
12123;DHT22;6125;59.628;17.852;2022-11-20T03:05:26;0.10;99.90
12123;DHT22;6125;59.628;17.852;2022-11-20T03:07:58;0.10;99.90
12123;DHT22;6125;59.628;17.852;2022-11-20T03:10:29;0.00;99.90
12123;DHT22;6125;59.628;17.852;2022-11-20T03:12:58;0.00;99.90
12123;DHT22;6125;59.628;17.852;2022-11-20T03:15:30;0.00;99.90
12123;DHT22;6125;59.628;17.852;2022-11-20T03:18:04;0.00;99.90
12123;DHT22;6125;59.628;17.852;2022-11-20T03:20:32;0.00;99.90
12123;DHT22;6125;59.628;17.852;2022-11-20T03:23:01;-0.10;99.90
12123;DHT22;6125;59.628;17.852;2022-11-20T03:25:28;-0.10;99.90
12123;DHT22;6125;59.628;17.852;2022-11-20T03:27:58;-0.10;99.90
12123;DHT22;6125;59.628;17.852;2022-11-20T03:30:25;-0.10;99.90
12123;DHT22;6125;59.628;17.852;2022-11-20T03:32:55;-0.10;99.90
12123;DHT22;6125;59.628;17.852;2022-11-20T03:35:22;-0.10;99.90
12123;DHT22;6125;59.628;17.852;2022-11-20T03:37:50;-0.10;99.90
12123;DHT22;6125;59.628;17.852;2022-11-20T03:40:22;-0.10;99.90
12123;DHT22;6125;59.628;17.852;2022-11-20T03:42:51;-0.20;99.90
12123;DHT22;6125;59.628;17.852;2022-11-20T03:45:18;-0.20;99.90
12123;DHT22;6125;59.628;17.852;2022-11-20T03:47:46;-0.30;99.90
12123;DHT22;6125;59.628;17.852;2022-11-20T03:50:19;-0.30;99.90
12123;DHT22;6125;59.628;17.852;2022-11-20T03:52:46;-0.30;99.90
12123;DHT22;6125;59.628;17.852;2022-11-20T03:55:12;-0.40;99.90
12123;DHT22;6125;59.628;17.852;2022-11-20T03:57:39;-0.40;99.90
12123;DHT22;6125;59.628;17.852;2022-11-20T04:00:07;-0.40;99.90
12123;DHT22;6125;59.628;17.852;2022-11-20T04:02:36;-0.40;99.90
12123;DHT22;6125;59.628;17.852;2022-11-20T04:05:08;-0.50;99.90
12123;DHT22;6125;59.628;17.852;2022-11-20T04:07:36;-0.50;99.90
12123;DHT22;6125;59.628;17.852;2022-11-20T04:10:04;-0.50;99.90
12123;DHT22;6125;59.628;17.852;2022-11-20T04:12:32;-0.50;99.90
12123;DHT22;6125;59.628;17.852;2022-11-20T04:14:59;-0.50;99.90
12123;DHT22;6125;59.628;17.852;2022-11-20T04:17:26;-0.50;99.90
12123;DHT22;6125;59.628;17.852;2022-11-20T04:19:55;-0.60;99.90
12123;DHT22;6125;59.628;17.852;2022-11-20T04:22:24;-0.60;99.90
12123;DHT22;6125;59.628;17.852;2022-11-20T04:24:52;-0.60;99.90
12123;DHT22;6125;59.628;17.852;2022-11-20T04:27:25;-0.70;99.90
12123;DHT22;6125;59.628;17.852;2022-11-20T04:29:52;-0.70;99.90
12123;DHT22;6125;59.628;17.852;2022-11-20T04:32:21;-0.70;99.90
12123;DHT22;6125;59.628;17.852;2022-11-20T04:34:58;-0.70;99.90
12123;DHT22;6125;59.628;17.852;2022-11-20T04:37:24;-0.80;99.90
12123;DHT22;6125;59.628;17.852;2022-11-20T04:39:53;-0.80;99.90
12123;DHT22;6125;59.628;17.852;2022-11-20T04:42:20;-0.80;99.90
12123;DHT22;6125;59.628;17.852;2022-11-20T04:44:56;-0.90;99.90
12123;DHT22;6125;59.628;17.852;2022-11-20T04:47:26;-0.80;99.90
12123;DHT22;6125;59.628;17.852;2022-11-20T04:49:56;-0.80;99.90
12123;DHT22;6125;59.628;17.852;2022-11-20T04:52:25;-0.80;99.90
12123;DHT22;6125;59.628;17.852;2022-11-20T04:54:53;-0.80;99.90
12123;DHT22;6125;59.628;17.852;2022-11-20T04:57:22;-0.80;99.90
12123;DHT22;6125;59.628;17.852;2022-11-20T04:59:49;-0.80;99.90
12123;DHT22;6125;59.628;17.852;2022-11-20T05:02:19;-0.80;99.90
12123;DHT22;6125;59.628;17.852;2022-11-20T05:04:46;-0.80;99.90
12123;DHT22;6125;59.628;17.852;2022-11-20T05:07:13;-0.80;99.90
12123;DHT22;6125;59.628;17.852;2022-11-20T05:09:40;-0.70;99.90
12123;DHT22;6125;59.628;17.852;2022-11-20T05:12:10;-0.70;99.90
12123;DHT22;6125;59.628;17.852;2022-11-20T05:14:37;-0.70;99.90
12123;DHT22;6125;59.628;17.852;2022-11-20T05:17:04;-0.70;99.90
12123;DHT22;6125;59.628;17.852;2022-11-20T05:19:31;-0.70;99.90
12123;DHT22;6125;59.628;17.852;2022-11-20T05:21:58;-0.70;99.90
12123;DHT22;6125;59.628;17.852;2022-11-20T05:24:28;-0.70;99.90
12123;DHT22;6125;59.628;17.852;2022-11-20T05:26:55;-0.60;99.90
12123;DHT22;6125;59.628;17.852;2022-11-20T05:29:27;-0.60;99.90
12123;DHT22;6125;59.628;17.852;2022-11-20T05:31:57;-0.60;99.90
12123;DHT22;6125;59.628;17.852;2022-11-20T05:34:26;-0.60;99.90
12123;DHT22;6125;59.628;17.852;2022-11-20T05:36:53;-0.60;99.90
12123;DHT22;6125;59.628;17.852;2022-11-20T05:39:20;-0.60;99.90
12123;DHT22;6125;59.628;17.852;2022-11-20T05:41:49;-0.50;99.90
12123;DHT22;6125;59.628;17.852;2022-11-20T05:44:41;-0.50;99.90
12123;DHT22;6125;59.628;17.852;2022-11-20T05:47:08;-0.50;99.90
12123;DHT22;6125;59.628;17.852;2022-11-20T05:49:37;-0.50;99.90
12123;DHT22;6125;59.628;17.852;2022-11-20T05:52:06;-0.50;99.90
12123;DHT22;6125;59.628;17.852;2022-11-20T05:54:35;-0.50;99.90
12123;DHT22;6125;59.628;17.852;2022-11-20T05:57:08;-0.50;99.90
12123;DHT22;6125;59.628;17.852;2022-11-20T05:59:35;-0.50;99.90
12123;DHT22;6125;59.628;17.852;2022-11-20T06:02:03;-0.60;99.90
12123;DHT22;6125;59.628;17.852;2022-11-20T06:04:30;-0.60;99.90
12123;DHT22;6125;59.628;17.852;2022-11-20T06:06:57;-0.60;99.90
12123;DHT22;6125;59.628;17.852;2022-11-20T06:09:24;-0.60;99.90
12123;DHT22;6125;59.628;17.852;2022-11-20T06:11:51;-0.60;99.90
12123;DHT22;6125;59.628;17.852;2022-11-20T06:14:18;-0.60;99.90
12123;DHT22;6125;59.628;17.852;2022-11-20T06:16:46;-0.60;99.90
12123;DHT22;6125;59.628;17.852;2022-11-20T06:19:17;-0.60;99.90
12123;DHT22;6125;59.628;17.852;2022-11-20T06:21:50;-0.60;99.90
12123;DHT22;6125;59.628;17.852;2022-11-20T06:24:17;-0.60;99.90
12123;DHT22;6125;59.628;17.852;2022-11-20T06:26:44;-0.50;99.90
12123;DHT22;6125;59.628;17.852;2022-11-20T06:29:11;-0.50;99.90
12123;DHT22;6125;59.628;17.852;2022-11-20T06:31:38;-0.50;99.90
12123;DHT22;6125;59.628;17.852;2022-11-20T06:34:08;-0.50;99.90
12123;DHT22;6125;59.628;17.852;2022-11-20T06:36:36;-0.50;99.90
12123;DHT22;6125;59.628;17.852;2022-11-20T06:39:03;-0.40;99.90
12123;DHT22;6125;59.628;17.852;2022-11-20T06:41:31;-0.40;99.90
12123;DHT22;6125;59.628;17.852;2022-11-20T06:43:58;-0.40;99.90
12123;DHT22;6125;59.628;17.852;2022-11-20T06:46:25;-0.50;99.90
12123;DHT22;6125;59.628;17.852;2022-11-20T06:48:52;-0.50;99.90
12123;DHT22;6125;59.628;17.852;2022-11-20T06:51:20;-0.50;99.90
12123;DHT22;6125;59.628;17.852;2022-11-20T06:53:49;-0.40;99.90
12123;DHT22;6125;59.628;17.852;2022-11-20T06:56:16;-0.50;99.90
12123;DHT22;6125;59.628;17.852;2022-11-20T06:58:43;-0.40;99.90
12123;DHT22;6125;59.628;17.852;2022-11-20T07:01:11;-0.40;99.90
12123;DHT22;6125;59.628;17.852;2022-11-20T07:03:38;-0.40;99.90
12123;DHT22;6125;59.628;17.852;2022-11-20T07:06:10;-0.40;99.90
12123;DHT22;6125;59.628;17.852;2022-11-20T07:08:37;-0.40;99.90
12123;DHT22;6125;59.628;17.852;2022-11-20T07:11:07;-0.40;99.90
12123;DHT22;6125;59.628;17.852;2022-11-20T07:13:34;-0.40;99.90
12123;DHT22;6125;59.628;17.852;2022-11-20T07:16:08;-0.30;99.90
12123;DHT22;6125;59.628;17.852;2022-11-20T07:18:36;-0.30;99.90
12123;DHT22;6125;59.628;17.852;2022-11-20T07:21:04;-0.30;99.90
12123;DHT22;6125;59.628;17.852;2022-11-20T07:23:32;-0.30;99.90
12123;DHT22;6125;59.628;17.852;2022-11-20T07:26:07;-0.30;99.90
12123;DHT22;6125;59.628;17.852;2022-11-20T07:28:38;-0.20;99.90
12123;DHT22;6125;59.628;17.852;2022-11-20T07:31:05;-0.20;99.90
12123;DHT22;6125;59.628;17.852;2022-11-20T07:33:33;-0.20;99.90
12123;DHT22;6125;59.628;17.852;2022-11-20T07:36:01;-0.20;99.90
12123;DHT22;6125;59.628;17.852;2022-11-20T07:38:31;-0.10;99.90
12123;DHT22;6125;59.628;17.852;2022-11-20T07:40:59;-0.10;99.90
12123;DHT22;6125;59.628;17.852;2022-11-20T07:43:28;-0.20;99.90
12123;DHT22;6125;59.628;17.852;2022-11-20T07:45:58;-0.20;99.90
12123;DHT22;6125;59.628;17.852;2022-11-20T07:48:28;-0.20;99.90
12123;DHT22;6125;59.628;17.852;2022-11-20T07:50:55;-0.20;99.90
12123;DHT22;6125;59.628;17.852;2022-11-20T07:53:25;-0.20;99.90
12123;DHT22;6125;59.628;17.852;2022-11-20T07:55:52;-0.20;99.90
12123;DHT22;6125;59.628;17.852;2022-11-20T07:58:21;-0.20;99.90
12123;DHT22;6125;59.628;17.852;2022-11-20T08:00:53;-0.30;99.90
12123;DHT22;6125;59.628;17.852;2022-11-20T08:03:19;-0.20;99.90
12123;DHT22;6125;59.628;17.852;2022-11-20T08:05:46;-0.20;99.90
12123;DHT22;6125;59.628;17.852;2022-11-20T08:08:13;-0.10;99.90
12123;DHT22;6125;59.628;17.852;2022-11-20T08:10:40;-0.10;99.90
12123;DHT22;6125;59.628;17.852;2022-11-20T08:13:13;-0.10;99.90
12123;DHT22;6125;59.628;17.852;2022-11-20T08:15:58;-0.10;99.90
12123;DHT22;6125;59.628;17.852;2022-11-20T08:18:31;-0.10;99.90
12123;DHT22;6125;59.628;17.852;2022-11-20T08:20:58;-0.10;99.90
12123;DHT22;6125;59.628;17.852;2022-11-20T08:23:24;-0.10;99.90
12123;DHT22;6125;59.628;17.852;2022-11-20T08:25:59;-0.10;99.90
12123;DHT22;6125;59.628;17.852;2022-11-20T08:28:29;-0.10;99.90
12123;DHT22;6125;59.628;17.852;2022-11-20T08:30:59;0.00;99.90
12123;DHT22;6125;59.628;17.852;2022-11-20T08:33:27;0.00;99.90
12123;DHT22;6125;59.628;17.852;2022-11-20T08:36:07;0.00;99.90
12123;DHT22;6125;59.628;17.852;2022-11-20T08:38:34;0.00;99.90
12123;DHT22;6125;59.628;17.852;2022-11-20T08:41:03;0.10;99.90
12123;DHT22;6125;59.628;17.852;2022-11-20T08:43:48;0.20;99.90
12123;DHT22;6125;59.628;17.852;2022-11-20T08:46:16;0.20;99.90
12123;DHT22;6125;59.628;17.852;2022-11-20T08:48:43;0.30;99.90
12123;DHT22;6125;59.628;17.852;2022-11-20T08:51:11;0.30;99.90
12123;DHT22;6125;59.628;17.852;2022-11-20T08:53:38;0.30;99.90
12123;DHT22;6125;59.628;17.852;2022-11-20T08:56:06;0.30;99.90
12123;DHT22;6125;59.628;17.852;2022-11-20T08:58:35;0.20;99.90
12123;DHT22;6125;59.628;17.852;2022-11-20T09:01:02;0.20;99.90
12123;DHT22;6125;59.628;17.852;2022-11-20T09:03:30;0.20;99.90
12123;DHT22;6125;59.628;17.852;2022-11-20T09:05:58;0.20;99.90
12123;DHT22;6125;59.628;17.852;2022-11-20T09:08:27;0.20;99.90
12123;DHT22;6125;59.628;17.852;2022-11-20T09:10:54;0.30;99.90
12123;DHT22;6125;59.628;17.852;2022-11-20T09:13:29;0.30;99.90
12123;DHT22;6125;59.628;17.852;2022-11-20T09:15:57;0.40;99.90
12123;DHT22;6125;59.628;17.852;2022-11-20T09:18:25;0.40;99.90
12123;DHT22;6125;59.628;17.852;2022-11-20T09:21:08;0.40;99.90
12123;DHT22;6125;59.628;17.852;2022-11-20T09:23:36;0.50;99.90
12123;DHT22;6125;59.628;17.852;2022-11-20T09:26:12;0.50;99.90
12123;DHT22;6125;59.628;17.852;2022-11-20T09:28:40;0.50;99.90
12123;DHT22;6125;59.628;17.852;2022-11-20T09:31:08;0.50;99.90
12123;DHT22;6125;59.628;17.852;2022-11-20T09:33:36;0.50;99.90
12123;DHT22;6125;59.628;17.852;2022-11-20T09:36:08;0.60;99.90
12123;DHT22;6125;59.628;17.852;2022-11-20T09:38:35;0.60;99.90
12123;DHT22;6125;59.628;17.852;2022-11-20T09:41:04;0.60;99.90
12123;DHT22;6125;59.628;17.852;2022-11-20T09:43:40;0.70;99.90
12123;DHT22;6125;59.628;17.852;2022-11-20T09:46:15;0.70;99.90
12123;DHT22;6125;59.628;17.852;2022-11-20T09:48:52;0.70;99.90
12123;DHT22;6125;59.628;17.852;2022-11-20T09:51:36;0.70;99.90
12123;DHT22;6125;59.628;17.852;2022-11-20T09:54:15;0.80;99.90
12123;DHT22;6125;59.628;17.852;2022-11-20T09:56:47;0.80;99.90
12123;DHT22;6125;59.628;17.852;2022-11-20T09:59:28;0.80;99.90
12123;DHT22;6125;59.628;17.852;2022-11-20T10:01:57;0.80;99.90
12123;DHT22;6125;59.628;17.852;2022-11-20T10:04:25;0.90;99.90
12123;DHT22;6125;59.628;17.852;2022-11-20T10:07:00;0.90;99.90
12123;DHT22;6125;59.628;17.852;2022-11-20T10:09:32;0.90;99.90
12123;DHT22;6125;59.628;17.852;2022-11-20T10:12:14;0.80;99.90
12123;DHT22;6125;59.628;17.852;2022-11-20T10:15:01;0.80;99.90
12123;DHT22;6125;59.628;17.852;2022-11-20T10:17:46;0.80;99.90
12123;DHT22;6125;59.628;17.852;2022-11-20T10:20:19;0.80;99.90
12123;DHT22;6125;59.628;17.852;2022-11-20T10:23:04;0.70;99.90
12123;DHT22;6125;59.628;17.852;2022-11-20T10:25:40;0.80;99.90
12123;DHT22;6125;59.628;17.852;2022-11-20T10:28:18;0.90;99.90
12123;DHT22;6125;59.628;17.852;2022-11-20T10:30:56;0.80;99.90
12123;DHT22;6125;59.628;17.852;2022-11-20T10:33:26;0.90;99.90
12123;DHT22;6125;59.628;17.852;2022-11-20T10:36:03;0.90;99.90
12123;DHT22;6125;59.628;17.852;2022-11-20T10:38:42;1.00;99.90
12123;DHT22;6125;59.628;17.852;2022-11-20T10:41:20;0.90;99.90
12123;DHT22;6125;59.628;17.852;2022-11-20T10:43:54;0.90;99.90
12123;DHT22;6125;59.628;17.852;2022-11-20T10:46:23;0.80;99.90
12123;DHT22;6125;59.628;17.852;2022-11-20T10:48:51;0.90;99.90
12123;DHT22;6125;59.628;17.852;2022-11-20T10:51:27;0.90;99.90
12123;DHT22;6125;59.628;17.852;2022-11-20T10:54:09;1.00;99.90
12123;DHT22;6125;59.628;17.852;2022-11-20T10:56:42;1.00;99.90
12123;DHT22;6125;59.628;17.852;2022-11-20T10:59:35;1.00;99.90
12123;DHT22;6125;59.628;17.852;2022-11-20T11:02:19;1.10;99.90
12123;DHT22;6125;59.628;17.852;2022-11-20T11:05:08;1.00;99.90
12123;DHT22;6125;59.628;17.852;2022-11-20T11:07:39;1.00;99.90
12123;DHT22;6125;59.628;17.852;2022-11-20T11:10:15;1.00;99.90
12123;DHT22;6125;59.628;17.852;2022-11-20T11:12:44;1.00;99.90
12123;DHT22;6125;59.628;17.852;2022-11-20T11:15:24;1.00;99.90
12123;DHT22;6125;59.628;17.852;2022-11-20T11:17:52;0.90;99.90
12123;DHT22;6125;59.628;17.852;2022-11-20T11:20:21;0.90;99.90
12123;DHT22;6125;59.628;17.852;2022-11-20T11:22:50;0.90;99.90
12123;DHT22;6125;59.628;17.852;2022-11-20T11:25:24;0.80;99.90
12123;DHT22;6125;59.628;17.852;2022-11-20T11:27:53;0.80;99.90
12123;DHT22;6125;59.628;17.852;2022-11-20T11:30:27;0.70;99.90
12123;DHT22;6125;59.628;17.852;2022-11-20T11:33:06;0.80;99.90
12123;DHT22;6125;59.628;17.852;2022-11-20T11:35:44;0.80;99.90
12123;DHT22;6125;59.628;17.852;2022-11-20T11:38:15;0.80;99.90
12123;DHT22;6125;59.628;17.852;2022-11-20T11:40:44;0.80;99.90
12123;DHT22;6125;59.628;17.852;2022-11-20T11:43:22;0.80;99.90
12123;DHT22;6125;59.628;17.852;2022-11-20T11:46:25;0.80;99.90
12123;DHT22;6125;59.628;17.852;2022-11-20T11:48:57;0.80;99.90
12123;DHT22;6125;59.628;17.852;2022-11-20T11:51:28;0.80;99.90
12123;DHT22;6125;59.628;17.852;2022-11-20T11:54:01;0.80;99.90
12123;DHT22;6125;59.628;17.852;2022-11-20T11:56:33;0.70;99.90
12123;DHT22;6125;59.628;17.852;2022-11-20T11:59:06;0.70;99.90
12123;DHT22;6125;59.628;17.852;2022-11-20T12:01:41;0.70;99.90
12123;DHT22;6125;59.628;17.852;2022-11-20T12:04:17;0.60;99.90
12123;DHT22;6125;59.628;17.852;2022-11-20T12:06:50;0.70;99.90
12123;DHT22;6125;59.628;17.852;2022-11-20T12:09:20;0.70;99.90
12123;DHT22;6125;59.628;17.852;2022-11-20T12:11:53;0.80;99.90
12123;DHT22;6125;59.628;17.852;2022-11-20T12:14:25;0.70;99.90
12123;DHT22;6125;59.628;17.852;2022-11-20T12:16:55;0.70;99.90
12123;DHT22;6125;59.628;17.852;2022-11-20T12:19:23;0.60;99.90
12123;DHT22;6125;59.628;17.852;2022-11-20T12:22:00;0.60;99.90
12123;DHT22;6125;59.628;17.852;2022-11-20T12:24:42;0.60;99.90
12123;DHT22;6125;59.628;17.852;2022-11-20T12:27:35;0.60;99.90
12123;DHT22;6125;59.628;17.852;2022-11-20T12:30:10;0.60;99.90
12123;DHT22;6125;59.628;17.852;2022-11-20T12:32:55;0.60;99.90
12123;DHT22;6125;59.628;17.852;2022-11-20T12:35:47;0.50;99.90
12123;DHT22;6125;59.628;17.852;2022-11-20T12:38:39;0.60;99.90
12123;DHT22;6125;59.628;17.852;2022-11-20T12:41:15;0.60;99.90
12123;DHT22;6125;59.628;17.852;2022-11-20T12:44:10;0.60;99.90
12123;DHT22;6125;59.628;17.852;2022-11-20T12:47:09;0.70;99.90
12123;DHT22;6125;59.628;17.852;2022-11-20T12:49:42;0.70;99.90
12123;DHT22;6125;59.628;17.852;2022-11-20T12:52:28;0.70;99.90
12123;DHT22;6125;59.628;17.852;2022-11-20T12:55:21;0.60;99.90
12123;DHT22;6125;59.628;17.852;2022-11-20T12:57:54;0.60;99.90
12123;DHT22;6125;59.628;17.852;2022-11-20T13:00:25;0.60;99.90
12123;DHT22;6125;59.628;17.852;2022-11-20T13:03:21;0.60;99.90
12123;DHT22;6125;59.628;17.852;2022-11-20T13:05:58;0.70;99.90
12123;DHT22;6125;59.628;17.852;2022-11-20T13:08:29;0.70;99.90
12123;DHT22;6125;59.628;17.852;2022-11-20T13:11:05;0.70;99.90
12123;DHT22;6125;59.628;17.852;2022-11-20T13:13:44;0.70;99.90
12123;DHT22;6125;59.628;17.852;2022-11-20T13:16:17;0.70;99.90
12123;DHT22;6125;59.628;17.852;2022-11-20T13:18:45;0.70;99.90
12123;DHT22;6125;59.628;17.852;2022-11-20T13:21:18;0.60;99.90
12123;DHT22;6125;59.628;17.852;2022-11-20T13:23:46;0.60;99.90
12123;DHT22;6125;59.628;17.852;2022-11-20T13:26:17;0.60;99.90
12123;DHT22;6125;59.628;17.852;2022-11-20T13:28:46;0.60;99.90
12123;DHT22;6125;59.628;17.852;2022-11-20T13:31:31;0.70;99.90
12123;DHT22;6125;59.628;17.852;2022-11-20T13:34:01;0.70;99.90
12123;DHT22;6125;59.628;17.852;2022-11-20T13:36:32;0.70;99.90
12123;DHT22;6125;59.628;17.852;2022-11-20T13:39:00;0.70;99.90
12123;DHT22;6125;59.628;17.852;2022-11-20T13:41:30;0.70;99.90
12123;DHT22;6125;59.628;17.852;2022-11-20T13:44:24;0.70;99.90
12123;DHT22;6125;59.628;17.852;2022-11-20T13:46:53;0.60;99.90
12123;DHT22;6125;59.628;17.852;2022-11-20T13:49:25;0.60;99.90
12123;DHT22;6125;59.628;17.852;2022-11-20T13:51:59;0.60;99.90
12123;DHT22;6125;59.628;17.852;2022-11-20T13:54:55;0.60;99.90
12123;DHT22;6125;59.628;17.852;2022-11-20T13:58:07;0.50;99.90
12123;DHT22;6125;59.628;17.852;2022-11-20T14:00:44;0.50;99.90
12123;DHT22;6125;59.628;17.852;2022-11-20T14:03:18;0.50;99.90
12123;DHT22;6125;59.628;17.852;2022-11-20T14:05:58;0.40;99.90
12123;DHT22;6125;59.628;17.852;2022-11-20T14:08:35;0.30;99.90
12123;DHT22;6125;59.628;17.852;2022-11-20T14:11:16;0.40;99.90
12123;DHT22;6125;59.628;17.852;2022-11-20T14:14:02;0.40;99.90
12123;DHT22;6125;59.628;17.852;2022-11-20T14:16:34;0.40;99.90
12123;DHT22;6125;59.628;17.852;2022-11-20T14:19:33;0.40;99.90
12123;DHT22;6125;59.628;17.852;2022-11-20T14:22:14;0.50;99.90
12123;DHT22;6125;59.628;17.852;2022-11-20T14:24:42;0.30;99.90
12123;DHT22;6125;59.628;17.852;2022-11-20T14:27:16;0.30;99.90
12123;DHT22;6125;59.628;17.852;2022-11-20T14:29:45;0.30;99.90
12123;DHT22;6125;59.628;17.852;2022-11-20T14:32:20;0.40;99.90
12123;DHT22;6125;59.628;17.852;2022-11-20T14:34:50;0.40;99.90
12123;DHT22;6125;59.628;17.852;2022-11-20T14:37:20;0.40;99.90
12123;DHT22;6125;59.628;17.852;2022-11-20T14:39:49;0.40;99.90
12123;DHT22;6125;59.628;17.852;2022-11-20T14:42:19;0.40;99.90
12123;DHT22;6125;59.628;17.852;2022-11-20T14:44:47;0.40;99.90
12123;DHT22;6125;59.628;17.852;2022-11-20T14:47:18;0.40;99.90
12123;DHT22;6125;59.628;17.852;2022-11-20T14:49:48;0.40;99.90
12123;DHT22;6125;59.628;17.852;2022-11-20T14:52:17;0.40;99.90
12123;DHT22;6125;59.628;17.852;2022-11-20T14:54:47;0.40;99.90
12123;DHT22;6125;59.628;17.852;2022-11-20T14:57:24;0.40;99.90
12123;DHT22;6125;59.628;17.852;2022-11-20T15:00:02;0.40;99.90
12123;DHT22;6125;59.628;17.852;2022-11-20T15:02:30;0.40;99.90
12123;DHT22;6125;59.628;17.852;2022-11-20T15:05:01;0.40;99.90
12123;DHT22;6125;59.628;17.852;2022-11-20T15:07:30;0.40;99.90
12123;DHT22;6125;59.628;17.852;2022-11-20T15:10:03;0.40;99.90
12123;DHT22;6125;59.628;17.852;2022-11-20T15:12:32;0.40;99.90
12123;DHT22;6125;59.628;17.852;2022-11-20T15:14:59;0.40;99.90
12123;DHT22;6125;59.628;17.852;2022-11-20T15:17:27;0.40;99.90
12123;DHT22;6125;59.628;17.852;2022-11-20T15:19:54;0.40;99.90
12123;DHT22;6125;59.628;17.852;2022-11-20T15:22:25;0.40;99.90
12123;DHT22;6125;59.628;17.852;2022-11-20T15:24:57;0.40;99.90
12123;DHT22;6125;59.628;17.852;2022-11-20T15:27:23;0.40;99.90
12123;DHT22;6125;59.628;17.852;2022-11-20T15:29:50;0.40;99.90
12123;DHT22;6125;59.628;17.852;2022-11-20T15:32:17;0.30;99.90
12123;DHT22;6125;59.628;17.852;2022-11-20T15:34:47;0.30;99.90
12123;DHT22;6125;59.628;17.852;2022-11-20T15:37:17;0.30;99.90
12123;DHT22;6125;59.628;17.852;2022-11-20T15:39:45;0.30;99.90
12123;DHT22;6125;59.628;17.852;2022-11-20T15:42:13;0.30;99.90
12123;DHT22;6125;59.628;17.852;2022-11-20T15:44:45;0.30;99.90
12123;DHT22;6125;59.628;17.852;2022-11-20T15:47:12;0.20;99.90
12123;DHT22;6125;59.628;17.852;2022-11-20T15:49:39;0.20;99.90
12123;DHT22;6125;59.628;17.852;2022-11-20T15:52:08;0.20;99.90
12123;DHT22;6125;59.628;17.852;2022-11-20T15:54:35;0.20;99.90
12123;DHT22;6125;59.628;17.852;2022-11-20T15:57:13;0.20;99.90
12123;DHT22;6125;59.628;17.852;2022-11-20T15:59:40;0.20;99.90
12123;DHT22;6125;59.628;17.852;2022-11-20T16:02:09;0.20;99.90
12123;DHT22;6125;59.628;17.852;2022-11-20T16:04:40;0.20;99.90
12123;DHT22;6125;59.628;17.852;2022-11-20T16:07:07;0.10;99.90